Liebenthal, Kansas
Current Conditions -  °F | °C
As of 4:35 AM on Thursday 29 Jan 2015 (Local Time) from KHYS Reporting Station
Clear Clear  
Wind Chill: 27°   Ceiling: Unl
Heat Index: 37°   Visibility: 10mi
Dew Point: 25°   Wind: 22mph
Humidity: 60%   Direction: 360°N
Pressure: 30.28"   Gusts: 26mph
Location:  38.66°N, 99.32°W
Report Text: KHYS 291035Z AUTO 36019G23KT 10SM CLR 03/M04 A3028 RMK AO1
Loading
Personal Weather Stations






























Interactive Weather Map New forecast layout! Learn more

10-Day Weather Forecast

Advertisements
Track Severe Weather on mobile